Latest Coastal Weather Observations for Frederick Reef

IDQ60701

Issued at 4:55 pm EST Wednesday 23 April 2014 (issued every 10 minutes, with the page automatically refreshed every 10 minutes)

About coastal observations | Map of coastal stations | Coastal observations for QLD | Marine services | Other Formats
Station Details ID: 200701 Name: FREDERICK REEF Lat: -20.94 Lon: 154.40 Height: 4.9 m
Data from the previous 72 hours. | See also: Recent months for locations in Queensland
Date/Time
EST
Temp

°C
Wind Pressure Rain
since 9am
mm
Weather Cloud Vis
km
Sea
Height
m
Swell
Dir
 
Speed
knots
Gust
knots
hPa Trend Height
m
Period
s
Dir
23/04:30pm 25.6 E 23 25 1012.8 - - - - - - - - -
23/04:00pm 25.4 ESE 22 25 1012.4 - - - - - - - - -
23/03:30pm 25.4 E 22 25 1012.3 - - - - - - - - -
23/03:00pm 25.9 E 21 24 1011.8 - - - - - - - - -
23/02:30pm 26.0 E 20 22 1012.5 - - - - - - - - -
23/02:00pm 25.8 E 19 23 1012.3 - - - - - - - - -
23/01:30pm 26.1 E 21 23 1012.8 - - - - - - - - -
23/01:00pm 25.7 E 20 22 1013.1 - - - - - - - - -
23/12:30pm 25.7 ESE 20 23 1013.8 - - - - - - - - -
23/12:00pm 25.9 ESE 21 25 1013.9 - - - - - - - - -
23/11:30am 25.5 E 21 24 1014.5 - - - - - - - - -
23/11:00am 25.6 E 22 26 1014.2 - - - - - - - - -
23/10:30am 25.3 E 25 27 1014.4 - - - - - - - - -
23/10:00am 25.3 E 25 29 1014.5 - - - - - - - - -
23/09:30am 25.2 E 25 28 1015.3 - - - - - - - - -
23/09:00am 25.0 E 24 27 1015.7 - - - - - - - - -
23/08:30am 25.0 E 22 25 1016.3 - - - - - - - - -
23/08:00am 25.4 E 26 28 1015.4 - - - - - - - - -
23/07:30am 25.1 ESE 27 30 1015.0 - - - - - - - - -
23/07:00am 25.1 ESE 27 34 1014.7 - - - - - - - - -
23/06:30am 25.7 ESE 24 27 1015.2 - - - - - - - - -
23/06:00am 25.6 ESE 25 29 1014.8 - - - - - - - - -
23/05:30am 26.1 ESE 24 27 1014.5 - - - - - - - - -
23/05:00am 25.7 ESE 25 29 1014.0 - - - - - - - - -
23/04:30am 25.8 ESE 23 26 1014.5 - - - - - - - - -
23/04:00am 25.8 ESE 22 25 1014.0 - - - - - - - - -
23/03:30am 25.9 E 22 24 1014.2 - - - - - - - - -
23/03:00am 25.7 E 22 24 1013.9 - - - - - - - - -
23/02:30am 25.8 E 23 25 1014.4 - - - - - - - - -
23/02:00am 25.8 E 22 26 1014.3 - - - - - - - - -
23/01:30am 26.1 E 23 26 1014.8 - - - - - - - - -
23/01:00am 25.8 E 23 25 1014.9 - - - - - - - - -
23/12:30am 25.9 E 23 27 1015.5 - - - - - - - - -
23/12:00am 25.9 E 24 27 1015.5 - - - - - - - - -
 
Date/Time
EST
Temp

°C
Wind Pressure Rain
since 9am
mm
Weather Cloud Vis
km
Sea
Height
m
Swell
Dir
 
Speed
knots
Gust
knots
hPa Trend Height
m
Period
s
Dir
22/11:30pm 25.8 E 25 27 1015.5 - - - - - - - - -
22/11:00pm 25.8 E 24 28 1015.5 - - - - - - - - -
22/10:30pm 25.8 E 25 29 1015.6 - - - - - - - - -
22/10:00pm 25.9 E 24 26 1015.7 - - - - - - - - -
22/09:30pm 26.1 E 23 25 1016.5 - - - - - - - - -
22/09:00pm 26.0 E 23 27 1016.0 - - - - - - - - -
22/08:30pm 25.9 E 23 26 1016.1 - - - - - - - - -
22/08:00pm 26.1 ESE 23 25 1015.8 - - - - - - - - -
22/07:30pm 25.9 E 22 25 1016.1 - - - - - - - - -
22/07:00pm 26.2 E 22 24 1015.8 - - - - - - - - -
22/06:30pm 26.0 E 23 25 1015.8 - - - - - - - - -
22/06:00pm 26.0 ESE 22 24 1015.3 - - - - - - - - -
22/05:30pm 25.9 ESE 22 25 1015.3 - - - - - - - - -
22/05:00pm 25.9 ESE 23 25 1015.1 - - - - - - - - -
22/04:30pm 25.9 ESE 21 24 1015.3 - - - - - - - - -
22/04:00pm 26.1 ESE 21 24 1015.0 - - - - - - - - -
22/03:30pm 25.9 ESE 21 24 1015.0 - - - - - - - - -
22/03:00pm 25.9 ESE 21 24 1014.7 - - - - - - - - -
22/02:30pm 25.9 ESE 21 24 1015.1 - - - - - - - - -
22/02:00pm 25.8 ESE 22 25 1014.8 - - - - - - - - -
22/01:30pm 25.8 ESE 22 25 1015.2 - - - - - - - - -
22/01:00pm 26.0 ESE 21 25 1015.1 - - - - - - - - -
22/12:30pm 25.9 ESE 22 25 1015.7 - - - - - - - - -
22/12:00pm 25.9 ESE 22 25 1015.8 - - - - - - - - -
22/11:30am 25.9 ESE 23 25 1016.5 - - - - - - - - -
22/11:00am 25.5 ESE 23 26 1016.6 - - - - - - - - -
22/10:30am 25.9 E 23 26 1017.3 - - - - - - - - -
22/10:00am 25.8 E 22 25 1017.4 - - - - - - - - -
22/09:30am 25.4 ESE 21 23 1017.9 - - - - - - - - -
22/09:00am 25.6 ESE 21 24 1017.8 - - - - - - - - -
22/08:30am 25.1 ESE 20 24 1017.7 - - - - - - - - -
22/08:00am 25.0 ESE 20 23 1017.5 - - - - - - - - -
22/07:30am 24.7 ESE 22 24 1017.5 - - - - - - - - -
22/07:00am 25.1 ESE 20 23 1017.2 - - - - - - - - -
22/06:30am 25.0 ESE 20 23 1017.3 - - - - - - - - -
22/06:00am 25.6 ESE 20 23 1016.8 - - - - - - - - -
22/05:30am 25.1 SE 21 24 1016.6 - - - - - - - - -
22/05:00am 25.6 ESE 20 23 1016.2 - - - - - - - - -
22/04:30am 25.0 SE 20 22 1016.4 - - - - - - - - -
22/04:00am 25.1 SE 21 23 1016.3 - - - - - - - - -
22/03:30am 25.1 SE 20 23 1016.4 - - - - - - - - -
22/03:00am 24.8 SE 20 23 1016.0 - - - - - - - - -
22/02:30am 24.9 SE 21 25 1016.3 - - - - - - - - -
22/02:00am 25.0 SE 22 24 1016.0 - - - - - - - - -
22/01:30am 24.8 SE 21 25 1016.7 - - - - - - - - -
22/01:00am 24.9 ESE 22 25 1016.6 - - - - - - - - -
22/12:00am 25.1 ESE 22 25 1017.1 - - - - - - - - -
 
Date/Time
EST
Temp

°C
Wind Pressure Rain
since 9am
mm
Weather Cloud Vis
km
Sea
Height
m
Swell
Dir
 
Speed
knots
Gust
knots
hPa Trend Height
m
Period
s
Dir
21/11:30pm 25.1 ESE 22 24 1017.6 - - - - - - - - -
21/11:00pm 25.1 ESE 22 25 1017.2 - - - - - - - - -
21/10:30pm 25.0 ESE 23 26 1017.7 - - - - - - - - -
21/10:00pm 25.1 ESE 23 25 1017.6 - - - - - - - - -
21/09:30pm 25.3 ESE 20 23 1018.1 - - - - - - - - -
21/09:00pm 25.4 ESE 21 23 1017.9 - - - - - - - - -
21/08:30pm 25.3 ESE 21 23 1018.1 - - - - - - - - -
21/08:00pm 25.4 ESE 21 23 1017.6 - - - - - - - - -
21/07:30pm 25.1 ESE 19 23 1017.7 - - - - - - - - -
21/07:00pm 25.1 ESE 20 24 1017.1 - - - - - - - - -
21/06:30pm 25.0 SE 20 23 1017.0 - - - - - - - - -
21/06:00pm 24.9 SE 19 22 1016.7 - - - - - - - - -
21/05:30pm 25.1 SE 20 23 1017.0 - - - - - - - - -
21/05:00pm 25.0 SE 20 23 1016.6 - - - - - - - - -
21/04:30pm 25.0 SE 20 23 1016.6 - - - - - - - - -
21/04:00pm 25.0 SE 21 23 1016.1 - - - - - - - - -
21/03:30pm 25.1 SE 19 21 1016.2 - - - - - - - - -
21/03:00pm 25.2 SE 19 23 1015.8 - - - - - - - - -
21/02:30pm 25.0 SE 20 23 1015.9 - - - - - - - - -
21/02:00pm 25.1 SE 19 23 1015.5 - - - - - - - - -
21/01:30pm 25.1 SE 19 22 1015.9 - - - - - - - - -
21/01:00pm 25.3 ESE 18 23 1015.7 - - - - - - - - -
21/12:30pm 25.1 ESE 19 22 1016.4 - - - - - - - - -
21/12:00pm 25.0 ESE 20 22 1016.3 - - - - - - - - -
21/11:30am 25.1 ESE 17 19 1017.2 - - - - - - - - -
21/11:00am 25.2 ESE 17 19 1017.2 - - - - - - - - -
21/10:30am 25.3 ESE 16 17 1018.1 - - - - - - - - -
21/10:00am 25.3 ESE 16 20 1018.1 - - - - - - - - -
21/09:30am 25.3 ESE 18 21 1018.4 - - - - - - - - -
21/09:00am 25.3 ESE 18 21 1018.0 - - - - - - - - -
21/08:30am 25.2 ESE 19 22 1018.2 - - - - - - - - -
21/08:00am 24.9 SE 17 22 1017.9 - - - - - - - - -
21/07:30am 24.8 ESE 17 20 1018.0 - - - - - - - - -
21/07:00am 25.0 ESE 17 21 1017.5 - - - - - - - - -
21/06:30am 25.0 ESE 16 19 1017.6 - - - - - - - - -
21/06:00am 24.9 ESE 17 19 1017.0 - - - - - - - - -
21/05:30am 24.7 ESE 18 20 1016.8 - - - - - - - - -
21/05:00am 24.7 ESE 19 22 1016.3 - - - - - - - - -
21/04:30am 24.8 ESE 18 22 1016.4 - - - - - - - - -
21/04:00am 24.7 ESE 18 21 1016.0 - - - - - - - - -
21/03:30am 24.9 ESE 19 21 1016.1 - - - - - - - - -
21/03:00am 24.8 ESE 18 20 1015.8 - - - - - - - - -
21/02:30am 24.7 ESE 18 23 1016.3 - - - - - - - - -
21/02:00am 24.7 ESE 18 21 1016.0 - - - - - - - - -
21/01:30am 24.8 ESE 19 22 1016.5 - - - - - - - - -
21/01:00am 24.8 ESE 18 20 1016.3 - - - - - - - - -
21/12:30am 24.8 SE 18 20 1017.1 - - - - - - - - -
21/12:00am 24.9 ESE 18 20 1016.9 - - - - - - - - -
 
Date/Time
EST
Temp

°C
Wind Pressure Rain
since 9am
mm
Weather Cloud Vis
km
Sea
Height
m
Swell
Dir
 
Speed
knots
Gust
knots
hPa Trend Height
m
Period
s
Dir
20/11:30pm 24.9 ESE 18 21 1017.4 - - - - - - - - -
20/11:00pm 25.1 SE 19 21 1017.0 - - - - - - - - -
20/10:30pm 25.0 ESE 18 21 1017.5 - - - - - - - - -
20/10:00pm 25.1 ESE 17 20 1017.3 - - - - - - - - -
20/09:30pm 25.2 ESE 17 20 1017.7 - - - - - - - - -
20/09:00pm 25.1 SE 17 21 1017.5 - - - - - - - - -
20/08:30pm 25.2 SE 18 20 1017.6 - - - - - - - - -
20/08:00pm 25.1 SE 17 19 1017.0 - - - - - - - - -
20/07:30pm 25.0 SE 16 19 1016.9 - - - - - - - - -
20/07:00pm 25.1 SE 17 20 1016.4 - - - - - - - - -
20/06:30pm 25.0 SE 16 19 1016.2 - - - - - - - - -
20/06:00pm 25.0 SE 15 17 1015.8 - - - - - - - - -
20/05:30pm 25.0 SE 15 17 1015.8 - - - - - - - - -
20/05:00pm 25.1 SE 15 17 1015.2 - - - - - - - - -

Other Formats:

Comma delimited format used in spreadsheet applications
http://www.bom.gov.au/fwo/IDQ60701/IDQ60701.94393.axf

JavaScript Object Notation format (JSON) in row-major order
http://www.bom.gov.au/fwo/IDQ60701/IDQ60701.94393.json